createdAt,value
2018-05-23T00:00:29.683Z,67.50
2018-05-23T00:02:56.079Z,67.70
2018-05-23T00:05:23.215Z,67.40
2018-05-23T00:07:50.713Z,67.50
2018-05-23T00:10:17.090Z,67.40
2018-05-23T00:12:43.468Z,67.40
2018-05-23T00:15:09.911Z,67.50
2018-05-23T00:17:36.381Z,67.40
2018-05-23T00:20:02.814Z,67.20
2018-05-23T00:22:29.185Z,67.30
2018-05-23T00:24:56.324Z,66.50
2018-05-23T00:27:25.071Z,66.60
2018-05-23T00:29:51.518Z,66.60
2018-05-23T00:32:17.949Z,67.20
2018-05-23T00:34:44.987Z,66.20
2018-05-23T00:37:11.463Z,66.90
2018-05-23T00:39:39.031Z,67.50
2018-05-23T00:42:06.211Z,67.30
2018-05-23T00:44:32.966Z,67.30
2018-05-23T00:46:59.333Z,67.30
2018-05-23T00:49:26.559Z,67.90
2018-05-23T00:51:52.977Z,67.40
2018-05-23T00:54:19.432Z,67.00
2018-05-23T00:56:46.229Z,65.50
2018-05-23T00:59:12.675Z,65.30
2018-05-23T01:01:39.103Z,65.20
2018-05-23T01:04:05.499Z,65.30
2018-05-23T01:06:32.730Z,66.10
2018-05-23T01:08:59.974Z,66.10
2018-05-23T01:11:27.113Z,66.00
2018-05-23T01:13:53.539Z,66.20
2018-05-23T01:16:19.909Z,66.00
2018-05-23T01:18:46.405Z,65.60
2018-05-23T01:21:12.934Z,65.40
2018-05-23T01:23:39.522Z,65.40
2018-05-23T01:26:06.782Z,65.40
2018-05-23T01:28:34.361Z,66.30
2018-05-23T01:31:00.809Z,66.30
2018-05-23T01:33:28.422Z,67.20
2018-05-23T01:35:55.767Z,67.50
2018-05-23T01:38:22.968Z,67.50
2018-05-23T01:40:50.077Z,67.40
2018-05-23T01:43:17.487Z,67.20
2018-05-23T01:45:44.305Z,67.20
2018-05-23T01:48:10.978Z,67.40
2018-05-23T01:50:37.920Z,67.40
2018-05-23T01:53:05.002Z,67.10
2018-05-23T01:55:31.442Z,67.40
2018-05-23T01:57:58.054Z,67.30
2018-05-23T02:00:24.440Z,67.60
2018-05-23T02:02:50.910Z,67.90
2018-05-23T02:05:17.468Z,67.50
2018-05-23T02:07:44.969Z,68.70
2018-05-23T02:10:11.504Z,68.40
2018-05-23T02:12:38.131Z,68.80
2018-05-23T02:15:04.569Z,69.10
2018-05-23T02:17:31.707Z,69.60
2018-05-23T02:19:59.338Z,69.60
2018-05-23T02:22:26.514Z,70.80
2018-05-23T02:24:53.814Z,70.80
2018-05-23T02:27:20.324Z,70.70
2018-05-23T02:29:46.854Z,70.80
2018-05-23T02:32:13.592Z,71.10
2018-05-23T02:34:40.517Z,71.80
2018-05-23T02:37:07.667Z,71.80
2018-05-23T02:39:34.610Z,71.50
2018-05-23T02:42:01.150Z,71.90
2018-05-23T02:44:27.694Z,71.80
2018-05-23T02:46:54.203Z,72.00
2018-05-23T02:49:21.430Z,72.40
2018-05-23T02:51:47.984Z,72.40
2018-05-23T02:54:15.649Z,73.00
2018-05-23T02:56:42.153Z,72.90
2018-05-23T02:59:08.573Z,72.70
2018-05-23T03:01:35.944Z,73.00
2018-05-23T03:04:03.273Z,73.20
2018-05-23T03:06:30.192Z,73.60
2018-05-23T03:08:57.343Z,74.30
2018-05-23T03:11:24.776Z,74.30
2018-05-23T03:13:51.587Z,74.20
2018-05-23T03:16:18.092Z,74.40
2018-05-23T03:18:44.588Z,74.70
2018-05-23T03:21:11.038Z,75.10
2018-05-23T03:23:38.990Z,75.60
2018-05-23T03:26:05.458Z,75.80
2018-05-23T03:28:32.621Z,75.70
2018-05-23T03:30:59.189Z,75.60
2018-05-23T03:33:25.642Z,75.60
2018-05-23T03:35:52.883Z,75.70
2018-05-23T03:38:19.317Z,75.70
2018-05-23T03:40:45.805Z,75.50
2018-05-23T03:43:12.246Z,74.30
2018-05-23T03:45:38.722Z,73.70
2018-05-23T03:48:05.425Z,73.90
2018-05-23T03:50:31.857Z,73.80
2018-05-23T03:52:58.579Z,74.80
2018-05-23T03:55:25.131Z,75.50
2018-05-23T03:57:51.513Z,75.40
2018-05-23T04:00:36.194Z,75.50
2018-05-23T04:03:21.814Z,75.30
2018-05-23T04:06:06.868Z,75.10
2018-05-23T04:08:35.119Z,75.60
2018-05-23T04:11:02.418Z,75.20
2018-05-23T04:13:28.828Z,75.20
2018-05-23T04:15:55.456Z,75.40
2018-05-23T04:18:22.737Z,75.50
2018-05-23T04:20:49.142Z,75.50
2018-05-23T04:23:15.568Z,75.50
2018-05-23T04:25:42.735Z,75.60
2018-05-23T04:28:09.224Z,75.50
2018-05-23T04:30:35.654Z,75.10
2018-05-23T04:33:02.074Z,75.40
2018-05-23T04:35:28.768Z,75.30
2018-05-23T04:37:55.309Z,75.60
2018-05-23T04:40:21.774Z,75.80
2018-05-23T04:42:48.185Z,75.50
2018-05-23T04:45:14.605Z,75.60
2018-05-23T04:47:41.136Z,75.00
2018-05-23T04:50:07.610Z,75.00
2018-05-23T04:52:34.210Z,74.70
2018-05-23T04:55:00.761Z,74.40
2018-05-23T04:57:27.208Z,74.30
2018-05-23T04:59:53.645Z,74.50
2018-05-23T05:02:20.100Z,75.30
2018-05-23T05:04:46.546Z,75.60
2018-05-23T05:07:14.453Z,74.70
2018-05-23T05:09:41.043Z,74.70
2018-05-23T05:12:07.655Z,74.80
2018-05-23T05:14:34.325Z,75.20
2018-05-23T05:17:01.505Z,76.10
2018-05-23T05:19:28.165Z,76.10
2018-05-23T05:21:54.615Z,75.90
2018-05-23T05:24:21.053Z,76.10
2018-05-23T05:26:47.621Z,76.80
2018-05-23T05:29:16.373Z,76.10
2018-05-23T05:31:42.924Z,76.10
2018-05-23T05:34:09.385Z,76.00
2018-05-23T05:36:37.041Z,76.80
2018-05-23T05:39:03.620Z,76.80
2018-05-23T05:41:30.094Z,77.20
2018-05-23T05:43:56.566Z,77.90
2018-05-23T05:46:23.754Z,77.90
2018-05-23T05:48:50.876Z,77.70
2018-05-23T05:51:17.285Z,77.10
2018-05-23T05:53:43.971Z,76.30
2018-05-23T05:56:10.684Z,76.20
2018-05-23T05:58:37.204Z,76.10
2018-05-23T06:01:05.081Z,75.10
2018-05-23T06:03:31.507Z,74.70
2018-05-23T06:05:58.682Z,74.20
2018-05-23T06:08:25.319Z,74.20
2018-05-23T06:10:52.424Z,73.30
2018-05-23T06:13:19.681Z,71.50
2018-05-23T06:15:47.193Z,72.00
2018-05-23T06:18:13.752Z,71.80
2018-05-23T06:20:42.111Z,71.30
2018-05-23T06:23:08.543Z,71.30
2018-05-23T06:25:37.573Z,71.40
2018-05-23T06:28:05.022Z,71.10
2018-05-23T06:30:31.601Z,70.80
2018-05-23T06:32:59.947Z,70.00
2018-05-23T06:35:26.619Z,70.00
2018-05-23T06:37:53.397Z,69.60
2018-05-23T06:40:19.865Z,66.90
2018-05-23T06:42:47.556Z,64.90
2018-05-23T06:45:14.653Z,64.90
2018-05-23T06:47:42.664Z,65.90
2018-05-23T06:50:09.920Z,66.50
2018-05-23T06:52:37.305Z,66.90
2018-05-23T06:55:03.755Z,66.90
2018-05-23T06:57:30.248Z,66.80
2018-05-23T06:59:56.736Z,67.70
2018-05-23T07:02:23.160Z,67.10
2018-05-23T07:04:49.738Z,66.60
2018-05-23T07:07:16.890Z,66.70
2018-05-23T07:09:44.129Z,66.00
2018-05-23T07:12:11.442Z,66.00
2018-05-23T07:14:37.890Z,65.90
2018-05-23T07:17:05.072Z,66.00
2018-05-23T07:19:32.411Z,66.00
2018-05-23T07:21:59.623Z,66.10
2018-05-23T07:24:26.915Z,66.00
2018-05-23T07:26:53.622Z,65.80
2018-05-23T07:29:20.052Z,65.30
2018-05-23T07:31:46.587Z,64.80
2018-05-23T07:34:12.924Z,65.30
2018-05-23T07:36:39.345Z,65.20
2018-05-23T07:39:05.875Z,65.40
2018-05-23T07:41:32.375Z,64.60
2018-05-23T07:43:59.600Z,63.80
2018-05-23T07:46:27.852Z,63.80
2018-05-23T07:48:54.338Z,63.90
2018-05-23T07:51:21.828Z,63.30
2018-05-23T07:53:52.289Z,63.20
2018-05-23T07:56:18.733Z,63.30
2018-05-23T07:58:46.109Z,63.30
2018-05-23T08:01:14.150Z,61.70
2018-05-23T08:03:40.615Z,61.60
2018-05-23T08:06:09.448Z,59.90
2018-05-23T08:08:36.696Z,60.00
2018-05-23T08:11:03.184Z,59.60
2018-05-23T08:13:29.725Z,59.50
2018-05-23T08:15:56.314Z,59.20
2018-05-23T08:18:23.006Z,59.50
2018-05-23T08:20:50.212Z,57.30
2018-05-23T08:23:16.645Z,57.20
2018-05-23T08:25:43.191Z,57.20
2018-05-23T08:28:11.189Z,58.80
2018-05-23T08:30:40.230Z,57.20
2018-05-23T08:33:07.196Z,57.00
2018-05-23T08:35:34.616Z,57.00
2018-05-23T08:38:01.120Z,56.90
2018-05-23T08:40:28.310Z,55.40
2018-05-23T08:42:56.054Z,55.30
2018-05-23T08:45:22.753Z,56.20
2018-05-23T08:47:49.167Z,56.00
2018-05-23T08:50:15.623Z,55.80
2018-05-23T08:52:42.800Z,55.90
2018-05-23T08:55:09.371Z,55.80
2018-05-23T08:57:36.722Z,55.70
2018-05-23T09:00:03.419Z,54.60
2018-05-23T09:02:30.408Z,53.40
2018-05-23T09:04:57.015Z,53.90
2018-05-23T09:07:23.506Z,53.70
2018-05-23T09:09:50.042Z,53.20
2018-05-23T09:12:16.615Z,53.30
2018-05-23T09:14:43.003Z,52.90
2018-05-23T09:17:09.390Z,53.30
2018-05-23T09:19:35.926Z,53.20
2018-05-23T09:22:02.392Z,53.80
2018-05-23T09:24:28.812Z,53.20
2018-05-23T09:26:55.368Z,52.70
2018-05-23T09:29:22.229Z,52.00
2018-05-23T09:31:48.694Z,52.30
2018-05-23T09:34:15.418Z,52.70
2018-05-23T09:36:42.032Z,52.90
2018-05-23T09:39:08.521Z,53.50
2018-05-23T09:41:35.053Z,52.80
2018-05-23T09:44:01.589Z,52.00
2018-05-23T09:46:28.737Z,53.00
2018-05-23T09:48:55.548Z,53.00
2018-05-23T09:51:23.061Z,52.70
2018-05-23T09:53:49.658Z,52.60
2018-05-23T09:56:16.162Z,53.00
2018-05-23T09:58:42.602Z,52.80
2018-05-23T10:01:10.439Z,52.70
2018-05-23T10:03:37.626Z,52.60
2018-05-23T10:06:04.090Z,52.50
2018-05-23T10:08:30.506Z,51.80
2018-05-23T10:10:57.684Z,51.30
2018-05-23T10:13:24.845Z,51.20
2018-05-23T10:15:51.353Z,51.30
2018-05-23T10:18:17.997Z,51.60
2018-05-23T10:20:44.424Z,51.30
2018-05-23T10:23:10.930Z,50.90
2018-05-23T10:25:38.345Z,51.10
2018-05-23T10:28:04.938Z,51.30
2018-05-23T10:30:32.091Z,51.60
2018-05-23T10:32:59.268Z,50.70
2018-05-23T10:35:25.721Z,50.40
2018-05-23T10:37:52.194Z,51.20
2018-05-23T10:40:19.751Z,52.30
2018-05-23T10:42:46.634Z,51.80
2018-05-23T10:45:13.077Z,52.80
2018-05-23T10:47:39.449Z,53.10
2018-05-23T10:50:05.982Z,53.30
2018-05-23T10:52:32.818Z,51.30
2018-05-23T10:54:59.439Z,50.50
2018-05-23T10:57:25.868Z,49.90
2018-05-23T10:59:52.261Z,48.20
2018-05-23T11:02:19.455Z,46.70
2018-05-23T11:04:45.943Z,46.50
2018-05-23T11:07:13.227Z,47.30
2018-05-23T11:09:40.189Z,47.20
2018-05-23T11:12:06.615Z,47.30
2018-05-23T11:14:33.334Z,47.60
2018-05-23T11:16:59.741Z,48.10
2018-05-23T11:19:29.318Z,48.20
2018-05-23T11:21:55.831Z,48.00
2018-05-23T11:24:22.321Z,47.60
2018-05-23T11:26:49.829Z,46.80
2018-05-23T11:29:16.251Z,46.70
2018-05-23T11:31:42.817Z,46.70
2018-05-23T11:34:11.124Z,44.70
2018-05-23T11:36:37.623Z,44.60
2018-05-23T11:39:04.251Z,44.30
2018-05-23T11:41:30.904Z,43.90
2018-05-23T11:43:57.553Z,42.50
2018-05-23T11:46:24.223Z,42.70
2018-05-23T11:48:51.396Z,42.90
2018-05-23T11:51:17.840Z,42.80
2018-05-23T11:53:44.356Z,40.80
2018-05-23T11:58:45.055Z,41.40
2018-05-23T12:01:11.582Z,41.40
2018-05-23T12:03:38.087Z,43.30
2018-05-23T12:06:04.562Z,43.20
2018-05-23T12:08:31.882Z,42.50
2018-05-23T12:10:58.340Z,43.20
2018-05-23T12:13:24.747Z,41.90
2018-05-23T12:15:51.155Z,42.10
2018-05-23T12:18:17.644Z,41.90
2018-05-23T12:20:45.891Z,42.80
2018-05-23T12:23:12.401Z,42.70
2018-05-23T12:25:39.831Z,44.10
2018-05-23T12:28:07.675Z,44.50
2018-05-23T12:30:34.737Z,44.40
2018-05-23T12:33:01.477Z,44.60
2018-05-23T12:35:29.913Z,44.60
2018-05-23T12:37:56.999Z,44.60
2018-05-23T12:40:23.472Z,43.80
2018-05-23T12:42:50.202Z,44.30
2018-05-23T12:45:16.642Z,45.00
2018-05-23T12:47:43.037Z,44.80
2018-05-23T12:50:09.427Z,43.80
2018-05-23T12:52:35.892Z,43.50
2018-05-23T12:55:02.504Z,42.60
2018-05-23T12:57:28.963Z,42.90
2018-05-23T12:59:55.425Z,42.30
2018-05-23T13:02:22.546Z,42.10
2018-05-23T13:04:49.059Z,42.00
2018-05-23T13:07:15.525Z,41.70
2018-05-23T13:09:41.942Z,39.90
2018-05-23T13:12:08.317Z,38.60
2018-05-23T13:14:35.047Z,39.00
2018-05-23T13:17:02.185Z,35.70
2018-05-23T13:19:29.357Z,35.10
2018-05-23T13:21:55.913Z,35.20
2018-05-23T13:24:22.376Z,34.00
2018-05-23T13:26:48.754Z,32.70
2018-05-23T13:29:16.336Z,31.70
2018-05-23T13:31:43.054Z,31.60
2018-05-23T13:34:10.452Z,31.30
2018-05-23T13:36:36.840Z,31.20
2018-05-23T13:39:05.217Z,31.50
2018-05-23T13:41:32.381Z,31.60
2018-05-23T13:43:59.206Z,31.60
2018-05-23T13:46:26.178Z,31.50
2018-05-23T13:48:53.137Z,31.20
2018-05-23T13:51:19.698Z,30.00
2018-05-23T13:53:46.129Z,28.90
2018-05-23T13:56:12.724Z,29.70
2018-05-23T13:58:39.625Z,29.50
2018-05-23T14:01:08.263Z,28.50
2018-05-23T14:03:35.809Z,28.50
2018-05-23T14:06:03.325Z,26.90
2018-05-23T14:08:30.734Z,26.90
2018-05-23T14:10:58.454Z,26.70
2018-05-23T14:13:25.973Z,29.10
2018-05-23T14:15:52.507Z,29.10
2018-05-23T14:18:20.035Z,28.30
2018-05-23T14:20:46.528Z,28.00
2018-05-23T14:23:13.819Z,28.80
2018-05-23T14:25:43.356Z,29.10
2018-05-23T14:28:13.545Z,28.30
2018-05-23T14:30:40.990Z,26.40
2018-05-23T14:33:08.504Z,25.50
2018-05-23T14:35:35.037Z,25.10
2018-05-23T14:38:01.575Z,24.00
2018-05-23T14:40:28.090Z,24.00
2018-05-23T14:42:54.495Z,24.10
2018-05-23T14:45:21.734Z,27.30
2018-05-23T14:47:49.921Z,29.00
2018-05-23T14:50:17.118Z,30.40
2018-05-23T14:52:43.528Z,30.30
2018-05-23T14:55:10.177Z,31.30
2018-05-23T14:57:36.885Z,31.70
2018-05-23T15:00:04.066Z,31.70
2018-05-23T15:02:30.601Z,31.60
2018-05-23T15:04:56.938Z,31.60
2018-05-23T15:07:23.586Z,33.10
2018-05-23T15:09:51.173Z,34.00
2018-05-23T15:12:17.778Z,34.60
2018-05-23T15:14:44.356Z,35.30
2018-05-23T15:17:11.866Z,35.10
2018-05-23T15:19:39.189Z,33.80
2018-05-23T15:22:05.624Z,34.40
2018-05-23T15:24:32.080Z,35.20
2018-05-23T15:26:58.550Z,35.10
2018-05-23T15:29:24.951Z,33.90
2018-05-23T15:31:51.427Z,33.50
2018-05-23T15:34:17.794Z,32.50
2018-05-23T15:36:44.267Z,31.60
2018-05-23T15:39:10.693Z,30.20
2018-05-23T15:41:37.706Z,29.70
2018-05-23T15:44:04.061Z,28.10
2018-05-23T15:46:30.616Z,28.10
2018-05-23T15:48:57.442Z,28.20
2018-05-23T15:51:24.096Z,27.80
2018-05-23T15:53:50.592Z,27.40
2018-05-23T15:56:17.040Z,27.80
2018-05-23T15:58:43.453Z,26.40
2018-05-23T16:01:09.957Z,25.70
2018-05-23T16:03:37.080Z,26.60
2018-05-23T16:06:03.558Z,26.50
2018-05-23T16:08:29.989Z,28.00
2018-05-23T16:10:57.209Z,28.20
2018-05-23T16:13:23.605Z,28.10
2018-05-23T16:15:50.042Z,27.10
2018-05-23T16:18:16.497Z,27.20
2018-05-23T16:20:43.388Z,26.00
2018-05-23T16:23:09.851Z,24.70
2018-05-23T16:25:36.663Z,25.40
2018-05-23T16:28:03.131Z,25.50
2018-05-23T16:30:29.580Z,26.80
2018-05-23T16:32:59.751Z,26.00
2018-05-23T16:35:26.173Z,25.70
2018-05-23T16:37:53.342Z,26.20
2018-05-23T16:40:19.734Z,26.20
2018-05-23T16:42:46.255Z,26.50
2018-05-23T16:45:12.950Z,26.20
2018-05-23T16:47:39.431Z,25.80
2018-05-23T16:50:06.692Z,25.70
2018-05-23T16:52:33.099Z,27.20
2018-05-23T16:54:59.549Z,27.80
2018-05-23T16:57:26.139Z,27.80
2018-05-23T16:59:52.628Z,28.30
2018-05-23T17:02:19.818Z,28.20
2018-05-23T17:04:46.193Z,28.10
2018-05-23T17:07:12.638Z,28.80
2018-05-23T17:09:39.111Z,28.40
2018-05-23T17:12:05.508Z,28.40
2018-05-23T17:14:32.032Z,28.40
2018-05-23T17:16:59.807Z,28.40
2018-05-23T17:19:27.448Z,28.50
2018-05-23T17:21:55.109Z,27.70
2018-05-23T17:24:21.505Z,30.10
2018-05-23T17:26:47.873Z,30.70
2018-05-23T17:29:14.392Z,30.90
2018-05-23T17:31:40.797Z,31.20
2018-05-23T17:34:07.183Z,32.20
2018-05-23T17:36:33.638Z,33.40
2018-05-23T17:39:00.134Z,34.60
2018-05-23T17:41:26.520Z,35.20
2018-05-23T17:43:53.669Z,36.60
2018-05-23T17:46:20.820Z,36.70
2018-05-23T17:48:47.269Z,36.80
2018-05-23T17:51:13.696Z,37.40
2018-05-23T17:53:42.852Z,38.50
2018-05-23T17:56:09.349Z,38.90
2018-05-23T17:58:36.093Z,39.10
2018-05-23T18:01:03.875Z,39.00
2018-05-23T18:03:30.317Z,40.10
2018-05-23T18:05:57.152Z,40.40
2018-05-23T18:08:23.660Z,41.00
2018-05-23T18:10:50.077Z,40.80
2018-05-23T18:13:16.433Z,40.80
2018-05-23T18:15:43.053Z,40.90
2018-05-23T18:18:09.527Z,40.30
2018-05-23T18:20:36.327Z,40.50
2018-05-23T18:23:02.985Z,40.80
2018-05-23T18:25:29.688Z,40.10
2018-05-23T18:27:57.427Z,41.40
2018-05-23T18:30:24.650Z,41.90
2018-05-23T18:32:51.448Z,41.80
2018-05-23T18:35:17.873Z,42.10
2018-05-23T18:37:45.405Z,42.70
2018-05-23T18:40:11.892Z,42.70
2018-05-23T18:42:38.398Z,42.40
2018-05-23T18:45:06.199Z,42.10
2018-05-23T18:47:33.426Z,42.40
2018-05-23T18:50:00.724Z,43.20
2018-05-23T18:52:27.554Z,43.10
2018-05-23T18:54:55.296Z,43.60
2018-05-23T18:57:22.469Z,43.60
2018-05-23T18:59:49.171Z,43.70
2018-05-23T19:02:15.713Z,44.50
2018-05-23T19:04:42.163Z,44.90
2018-05-23T19:07:08.725Z,45.30
2018-05-23T19:09:35.422Z,45.20
2018-05-23T19:12:01.859Z,45.40
2018-05-23T19:14:28.569Z,46.00
2018-05-23T19:16:55.034Z,46.10
2018-05-23T19:19:21.529Z,46.60
2018-05-23T19:21:48.875Z,47.00
2018-05-23T19:24:15.315Z,47.60
2018-05-23T19:26:41.781Z,48.30
2018-05-23T19:29:08.325Z,48.40
2018-05-23T19:31:35.232Z,48.10
2018-05-23T19:34:02.394Z,48.10
2018-05-23T19:36:29.593Z,48.20
2018-05-23T19:38:56.030Z,48.10
2018-05-23T19:41:23.603Z,48.70
2018-05-23T19:43:50.245Z,49.10
2018-05-23T19:46:16.859Z,49.40
2018-05-23T19:48:43.300Z,50.00
2018-05-23T19:51:10.118Z,50.30
2018-05-23T19:53:36.757Z,50.70
2018-05-23T19:56:03.143Z,50.80
2018-05-23T19:58:29.607Z,51.00
2018-05-23T20:00:56.048Z,51.70
2018-05-23T20:03:22.465Z,52.10
2018-05-23T20:05:49.898Z,52.40
2018-05-23T20:08:17.584Z,53.00
2018-05-23T20:10:44.574Z,52.90
2018-05-23T20:13:11.238Z,53.20
2018-05-23T20:15:38.600Z,54.10
2018-05-23T20:18:05.710Z,54.50
2018-05-23T20:20:32.519Z,54.50
2018-05-23T20:22:58.989Z,54.60
2018-05-23T20:25:25.432Z,54.90
2018-05-23T20:27:51.893Z,55.10
2018-05-23T20:30:18.943Z,55.30
2018-05-23T20:32:50.304Z,55.90
2018-05-23T20:35:17.674Z,55.90
2018-05-23T20:37:46.194Z,56.10
2018-05-23T20:40:15.002Z,56.00
2018-05-23T20:42:44.515Z,55.90
2018-05-23T20:45:12.406Z,55.50
2018-05-23T20:47:39.599Z,56.10
2018-05-23T20:50:06.061Z,56.20
2018-05-23T20:52:32.590Z,56.40
2018-05-23T20:54:59.213Z,56.60
2018-05-23T20:57:26.588Z,56.90
2018-05-23T20:59:53.170Z,56.90
2018-05-23T21:02:19.755Z,56.90
2018-05-23T21:04:46.431Z,56.90
2018-05-23T21:07:13.279Z,56.90
2018-05-23T21:09:39.858Z,56.90
2018-05-23T21:12:06.448Z,56.90
2018-05-23T21:14:32.970Z,56.90
2018-05-23T21:17:00.391Z,57.30
2018-05-23T21:19:28.094Z,57.30
2018-05-23T21:21:54.597Z,57.80
2018-05-23T21:24:21.871Z,57.90
2018-05-23T21:26:49.353Z,58.10
2018-05-23T21:29:15.933Z,58.00
2018-05-23T21:31:42.677Z,58.00
2018-05-23T21:34:11.250Z,57.70
2018-05-23T21:36:40.416Z,58.40
2018-05-23T21:39:08.657Z,59.30
2018-05-23T21:41:38.083Z,58.90
2018-05-23T21:44:06.104Z,58.80
2018-05-23T21:46:33.722Z,59.10
2018-05-23T21:49:01.222Z,59.30
2018-05-23T21:51:27.740Z,59.40
2018-05-23T21:53:54.805Z,58.90
2018-05-23T21:56:21.379Z,59.60
2018-05-23T21:58:47.870Z,59.70
2018-05-23T22:01:14.465Z,59.40
2018-05-23T22:03:41.033Z,59.90
2018-05-23T22:06:08.487Z,60.30
2018-05-23T22:08:34.977Z,60.90
2018-05-23T22:11:02.316Z,61.80
2018-05-23T22:13:29.543Z,62.70
2018-05-23T22:15:56.002Z,62.70
2018-05-23T22:18:23.494Z,64.00
2018-05-23T22:20:49.991Z,61.70
2018-05-23T22:23:17.419Z,64.30
2018-05-23T22:25:43.895Z,64.20
2018-05-23T22:28:11.163Z,64.70
2018-05-23T22:30:44.081Z,64.70
2018-05-23T22:33:11.945Z,65.10
2018-05-23T22:35:38.337Z,65.40
2018-05-23T22:38:05.551Z,65.70
2018-05-23T22:40:32.460Z,65.70
2018-05-23T22:43:00.001Z,65.90
2018-05-23T22:45:27.186Z,65.60
2018-05-23T22:50:27.231Z,65.60
2018-05-23T22:52:53.722Z,65.50
2018-05-23T22:55:20.536Z,65.90
2018-05-23T22:57:46.944Z,65.50
2018-05-23T23:00:21.028Z,66.30
2018-05-23T23:02:47.627Z,66.20
2018-05-23T23:05:14.858Z,67.10
2018-05-23T23:07:41.324Z,67.10
2018-05-23T23:10:07.723Z,67.60
2018-05-23T23:12:34.280Z,67.70
2018-05-23T23:15:01.456Z,68.00
2018-05-23T23:17:27.893Z,67.90
2018-05-23T23:19:54.441Z,68.50
2018-05-23T23:22:39.069Z,68.50
2018-05-23T23:25:05.580Z,68.60
2018-05-23T23:27:32.018Z,69.20
2018-05-23T23:29:59.233Z,69.70
2018-05-23T23:32:25.605Z,69.00
2018-05-23T23:34:52.761Z,68.40
2018-05-23T23:37:20.019Z,68.80
2018-05-23T23:39:47.343Z,68.70
2018-05-23T23:42:14.013Z,68.30
2018-05-23T23:44:41.155Z,68.20
2018-05-23T23:47:07.575Z,68.20
2018-05-23T23:49:33.974Z,68.60
2018-05-23T23:52:00.404Z,68.30
2018-05-23T23:54:27.113Z,68.30
2018-05-23T23:56:53.620Z,68.60
2018-05-23T23:59:20.744Z,69.00
